sensor_id;sensor_type;location;lat;lon;timestamp;pressure;altitude;pressure_sealevel;temperature;humidity
42297;BME280;72430;47.456;19.016;2024-01-15T00:02:10;99220.09;;;-2.37;78.10
42297;BME280;72430;47.456;19.016;2024-01-15T00:05:12;99215.19;;;-2.27;78.02
42297;BME280;72430;47.456;19.016;2024-01-15T00:08:14;99210.41;;;-2.20;78.33
42297;BME280;72430;47.456;19.016;2024-01-15T00:11:16;99199.59;;;-2.32;79.21
42297;BME280;72430;47.456;19.016;2024-01-15T00:14:18;99189.75;;;-2.12;79.20
42297;BME280;72430;47.456;19.016;2024-01-15T00:17:22;99185.72;;;-2.19;80.49
42297;BME280;72430;47.456;19.016;2024-01-15T00:20:24;99174.84;;;-1.97;79.74
42297;BME280;72430;47.456;19.016;2024-01-15T00:23:29;99170.59;;;-1.99;80.16
42297;BME280;72430;47.456;19.016;2024-01-15T00:26:31;99165.31;;;-1.99;80.58
42297;BME280;72430;47.456;19.016;2024-01-15T00:29:33;99150.03;;;-1.78;78.71
42297;BME280;72430;47.456;19.016;2024-01-15T00:32:35;99140.78;;;-1.85;79.37
42297;BME280;72430;47.456;19.016;2024-01-15T00:35:36;99139.19;;;-2.04;80.11
42297;BME280;72430;47.456;19.016;2024-01-15T00:38:38;99135.16;;;-1.95;79.62
42297;BME280;72430;47.456;19.016;2024-01-15T00:41:40;99146.84;;;-1.99;79.76
42297;BME280;72430;47.456;19.016;2024-01-15T00:44:42;99153.13;;;-1.86;78.67
42297;BME280;72430;47.456;19.016;2024-01-15T00:47:44;99139.78;;;-1.83;78.74
42297;BME280;72430;47.456;19.016;2024-01-15T00:50:46;99139.50;;;-1.78;79.46
42297;BME280;72430;47.456;19.016;2024-01-15T00:53:48;99153.63;;;-1.79;79.47
42297;BME280;72430;47.456;19.016;2024-01-15T00:56:49;99136.28;;;-1.69;79.05
42297;BME280;72430;47.456;19.016;2024-01-15T00:59:51;99148.47;;;-1.66;78.87
42297;BME280;72430;47.456;19.016;2024-01-15T01:02:53;99139.66;;;-1.81;80.14
42297;BME280;72430;47.456;19.016;2024-01-15T01:05:55;99138.03;;;-1.84;80.54
42297;BME280;72430;47.456;19.016;2024-01-15T01:08:58;99138.81;;;-1.82;80.54
42297;BME280;72430;47.456;19.016;2024-01-15T01:12:00;99131.28;;;-1.73;80.95
42297;BME280;72430;47.456;19.016;2024-01-15T01:15:02;99126.59;;;-1.68;79.84
42297;BME280;72430;47.456;19.016;2024-01-15T01:18:04;99117.75;;;-1.67;78.63
42297;BME280;72430;47.456;19.016;2024-01-15T01:21:07;99106.75;;;-1.59;77.21
42297;BME280;72430;47.456;19.016;2024-01-15T01:24:08;99103.00;;;-1.86;79.30
42297;BME280;72430;47.456;19.016;2024-01-15T01:27:10;99102.59;;;-1.94;79.41
42297;BME280;72430;47.456;19.016;2024-01-15T01:30:12;99103.75;;;-2.14;80.96
42297;BME280;72430;47.456;19.016;2024-01-15T01:33:15;99088.41;;;-2.08;80.23
42297;BME280;72430;47.456;19.016;2024-01-15T01:36:17;99098.13;;;-2.08;79.65
42297;BME280;72430;47.456;19.016;2024-01-15T01:39:19;99097.81;;;-2.18;80.59
42297;BME280;72430;47.456;19.016;2024-01-15T01:42:21;99090.97;;;-2.06;79.98
42297;BME280;72430;47.456;19.016;2024-01-15T01:45:23;99079.88;;;-2.27;81.79
42297;BME280;72430;47.456;19.016;2024-01-15T01:48:26;99079.16;;;-2.15;80.00
42297;BME280;72430;47.456;19.016;2024-01-15T01:51:28;99077.13;;;-2.10;80.51
42297;BME280;72430;47.456;19.016;2024-01-15T01:54:32;99074.16;;;-2.20;80.12
42297;BME280;72430;47.456;19.016;2024-01-15T01:57:35;99055.25;;;-2.43;80.84
42297;BME280;72430;47.456;19.016;2024-01-15T02:00:37;99049.66;;;-2.52;81.53
42297;BME280;72430;47.456;19.016;2024-01-15T02:03:40;99056.09;;;-2.42;80.05
42297;BME280;72430;47.456;19.016;2024-01-15T02:06:42;99050.00;;;-2.59;80.44
42297;BME280;72430;47.456;19.016;2024-01-15T02:09:44;99042.28;;;-2.78;80.80
42297;BME280;72430;47.456;19.016;2024-01-15T02:12:47;99026.38;;;-2.76;81.24
42297;BME280;72430;47.456;19.016;2024-01-15T02:15:50;99026.06;;;-2.86;80.48
42297;BME280;72430;47.456;19.016;2024-01-15T02:18:52;99046.59;;;-2.77;79.80
42297;BME280;72430;47.456;19.016;2024-01-15T02:21:54;99044.50;;;-2.86;79.81
42297;BME280;72430;47.456;19.016;2024-01-15T02:24:56;99041.06;;;-2.88;79.48
42297;BME280;72430;47.456;19.016;2024-01-15T02:27:58;99030.72;;;-2.91;78.97
42297;BME280;72430;47.456;19.016;2024-01-15T02:31:00;99026.56;;;-3.28;80.25
42297;BME280;72430;47.456;19.016;2024-01-15T02:34:02;99023.06;;;-3.28;80.42
42297;BME280;72430;47.456;19.016;2024-01-15T02:37:04;99024.25;;;-3.18;79.53
42297;BME280;72430;47.456;19.016;2024-01-15T02:40:07;99024.13;;;-3.48;79.83
42297;BME280;72430;47.456;19.016;2024-01-15T02:43:09;99016.63;;;-3.56;80.79
42297;BME280;72430;47.456;19.016;2024-01-15T02:46:10;99010.16;;;-3.67;81.94
42297;BME280;72430;47.456;19.016;2024-01-15T02:49:12;99000.91;;;-3.58;80.60
42297;BME280;72430;47.456;19.016;2024-01-15T02:52:14;99007.22;;;-3.60;80.78
42297;BME280;72430;47.456;19.016;2024-01-15T02:55:16;99025.25;;;-3.70;81.61
42297;BME280;72430;47.456;19.016;2024-01-15T02:58:18;99027.28;;;-3.42;80.74
42297;BME280;72430;47.456;19.016;2024-01-15T03:01:20;99002.38;;;-3.68;81.09
42297;BME280;72430;47.456;19.016;2024-01-15T03:04:22;98988.69;;;-3.75;80.48
42297;BME280;72430;47.456;19.016;2024-01-15T03:07:24;98982.50;;;-3.92;79.08
42297;BME280;72430;47.456;19.016;2024-01-15T03:10:26;98979.59;;;-4.21;80.09
42297;BME280;72430;47.456;19.016;2024-01-15T03:13:28;98972.66;;;-4.04;80.50
42297;BME280;72430;47.456;19.016;2024-01-15T03:16:30;98972.72;;;-4.06;80.26
42297;BME280;72430;47.456;19.016;2024-01-15T03:19:34;98971.72;;;-4.03;78.96
42297;BME280;72430;47.456;19.016;2024-01-15T03:22:36;98974.53;;;-4.41;79.69
42297;BME280;72430;47.456;19.016;2024-01-15T03:25:38;98962.31;;;-4.25;79.50
42297;BME280;72430;47.456;19.016;2024-01-15T03:28:40;98953.75;;;-4.46;82.28
42297;BME280;72430;47.456;19.016;2024-01-15T03:31:42;98963.09;;;-4.40;81.03
42297;BME280;72430;47.456;19.016;2024-01-15T03:34:43;98968.09;;;-4.36;79.90
42297;BME280;72430;47.456;19.016;2024-01-15T03:37:46;98970.28;;;-4.44;80.35
42297;BME280;72430;47.456;19.016;2024-01-15T03:40:47;98993.84;;;-4.25;79.38
42297;BME280;72430;47.456;19.016;2024-01-15T03:43:49;98979.84;;;-4.43;80.47
42297;BME280;72430;47.456;19.016;2024-01-15T03:46:51;98968.78;;;-4.32;79.62
42297;BME280;72430;47.456;19.016;2024-01-15T03:49:53;98980.22;;;-4.51;79.64
42297;BME280;72430;47.456;19.016;2024-01-15T03:52:55;99006.66;;;-4.54;80.82
42297;BME280;72430;47.456;19.016;2024-01-15T03:55:57;98983.25;;;-4.23;81.62
42297;BME280;72430;47.456;19.016;2024-01-15T03:58:59;98997.56;;;-4.29;80.97
42297;BME280;72430;47.456;19.016;2024-01-15T04:02:00;98996.00;;;-4.51;79.37
42297;BME280;72430;47.456;19.016;2024-01-15T04:05:02;98993.84;;;-4.42;79.05
42297;BME280;72430;47.456;19.016;2024-01-15T04:08:04;98999.22;;;-4.63;80.86
42297;BME280;72430;47.456;19.016;2024-01-15T04:11:06;98985.78;;;-4.57;80.67
42297;BME280;72430;47.456;19.016;2024-01-15T04:14:09;98966.94;;;-4.83;80.54
42297;BME280;72430;47.456;19.016;2024-01-15T04:17:11;98961.38;;;-4.77;79.60
42297;BME280;72430;47.456;19.016;2024-01-15T04:20:13;98948.78;;;-4.52;80.76
42297;BME280;72430;47.456;19.016;2024-01-15T04:23:15;98939.38;;;-4.74;79.72
42297;BME280;72430;47.456;19.016;2024-01-15T04:26:16;98946.38;;;-4.75;80.09
42297;BME280;72430;47.456;19.016;2024-01-15T04:29:18;98950.50;;;-4.51;79.42
42297;BME280;72430;47.456;19.016;2024-01-15T04:32:20;98948.66;;;-4.49;78.58
42297;BME280;72430;47.456;19.016;2024-01-15T04:35:22;98950.56;;;-4.70;81.06
42297;BME280;72430;47.456;19.016;2024-01-15T04:38:24;98941.31;;;-4.78;80.88
42297;BME280;72430;47.456;19.016;2024-01-15T04:41:26;98947.34;;;-4.95;78.21
42297;BME280;72430;47.456;19.016;2024-01-15T04:44:28;98947.88;;;-4.69;79.32
42297;BME280;72430;47.456;19.016;2024-01-15T04:47:30;98937.69;;;-4.75;80.97
42297;BME280;72430;47.456;19.016;2024-01-15T04:50:32;98940.66;;;-4.83;81.16
42297;BME280;72430;47.456;19.016;2024-01-15T04:53:34;98938.16;;;-5.04;81.34
42297;BME280;72430;47.456;19.016;2024-01-15T04:56:36;98942.16;;;-4.60;81.27
42297;BME280;72430;47.456;19.016;2024-01-15T04:59:38;98946.06;;;-4.68;81.65
42297;BME280;72430;47.456;19.016;2024-01-15T05:02:41;98948.25;;;-4.77;81.69
42297;BME280;72430;47.456;19.016;2024-01-15T05:05:43;98953.50;;;-4.59;80.33
42297;BME280;72430;47.456;19.016;2024-01-15T05:08:44;98958.44;;;-5.07;79.97
42297;BME280;72430;47.456;19.016;2024-01-15T05:11:46;98959.88;;;-4.82;81.01
42297;BME280;72430;47.456;19.016;2024-01-15T05:14:48;98954.94;;;-4.89;80.72
42297;BME280;72430;47.456;19.016;2024-01-15T05:17:50;98953.00;;;-4.85;82.11
42297;BME280;72430;47.456;19.016;2024-01-15T05:20:52;98957.38;;;-5.03;79.08
42297;BME280;72430;47.456;19.016;2024-01-15T05:23:54;98953.56;;;-5.15;81.48
42297;BME280;72430;47.456;19.016;2024-01-15T05:26:56;98951.88;;;-5.16;80.53
42297;BME280;72430;47.456;19.016;2024-01-15T05:29:58;98950.63;;;-5.09;81.46
42297;BME280;72430;47.456;19.016;2024-01-15T05:32:59;98955.94;;;-4.74;82.01
42297;BME280;72430;47.456;19.016;2024-01-15T05:36:03;98951.00;;;-4.80;82.54
42297;BME280;72430;47.456;19.016;2024-01-15T05:39:05;98946.56;;;-4.78;82.60
42297;BME280;72430;47.456;19.016;2024-01-15T05:42:07;98942.75;;;-4.90;81.64
42297;BME280;72430;47.456;19.016;2024-01-15T05:45:09;98949.47;;;-4.84;82.04
42297;BME280;72430;47.456;19.016;2024-01-15T05:48:12;98948.78;;;-4.70;80.50
42297;BME280;72430;47.456;19.016;2024-01-15T05:51:14;98961.63;;;-4.64;82.10
42297;BME280;72430;47.456;19.016;2024-01-15T05:54:18;98960.13;;;-4.69;80.93
42297;BME280;72430;47.456;19.016;2024-01-15T05:57:21;98957.72;;;-4.92;80.24
42297;BME280;72430;47.456;19.016;2024-01-15T06:00:24;98948.16;;;-4.93;80.53
42297;BME280;72430;47.456;19.016;2024-01-15T06:03:26;98947.13;;;-5.08;78.50
42297;BME280;72430;47.456;19.016;2024-01-15T06:06:28;98943.06;;;-5.15;81.69
42297;BME280;72430;47.456;19.016;2024-01-15T06:09:30;98936.25;;;-4.82;82.92
42297;BME280;72430;47.456;19.016;2024-01-15T06:12:33;98937.13;;;-4.82;80.00
42297;BME280;72430;47.456;19.016;2024-01-15T06:15:35;98955.13;;;-5.11;79.83
42297;BME280;72430;47.456;19.016;2024-01-15T06:18:37;98957.28;;;-5.19;80.39
42297;BME280;72430;47.456;19.016;2024-01-15T06:21:40;98960.25;;;-5.27;79.95
42297;BME280;72430;47.456;19.016;2024-01-15T06:24:42;98958.50;;;-5.09;80.01
42297;BME280;72430;47.456;19.016;2024-01-15T06:27:44;98958.03;;;-4.98;79.40
42297;BME280;72430;47.456;19.016;2024-01-15T06:30:46;98953.16;;;-4.88;80.56
42297;BME280;72430;47.456;19.016;2024-01-15T06:33:48;98950.19;;;-4.80;81.97
42297;BME280;72430;47.456;19.016;2024-01-15T06:36:50;98959.00;;;-4.64;81.08
42297;BME280;72430;47.456;19.016;2024-01-15T06:39:52;98954.44;;;-4.78;83.02
42297;BME280;72430;47.456;19.016;2024-01-15T06:42:54;98951.13;;;-4.46;82.13
42297;BME280;72430;47.456;19.016;2024-01-15T06:45:56;98961.78;;;-4.49;80.84
42297;BME280;72430;47.456;19.016;2024-01-15T06:48:58;98962.31;;;-4.42;82.54
42297;BME280;72430;47.456;19.016;2024-01-15T06:52:00;98962.69;;;-4.33;82.23
42297;BME280;72430;47.456;19.016;2024-01-15T06:55:02;98960.91;;;-4.32;81.83
42297;BME280;72430;47.456;19.016;2024-01-15T06:58:04;98961.69;;;-4.30;81.63
42297;BME280;72430;47.456;19.016;2024-01-15T07:01:06;98963.22;;;-4.43;82.18
42297;BME280;72430;47.456;19.016;2024-01-15T07:04:09;98961.53;;;-4.27;82.17
42297;BME280;72430;47.456;19.016;2024-01-15T07:07:14;98954.56;;;-4.10;82.79
42297;BME280;72430;47.456;19.016;2024-01-15T07:10:16;98967.06;;;-3.98;82.53
42297;BME280;72430;47.456;19.016;2024-01-15T07:13:17;98963.75;;;-3.68;82.25
42297;BME280;72430;47.456;19.016;2024-01-15T07:16:19;98964.41;;;-3.30;81.69
42297;BME280;72430;47.456;19.016;2024-01-15T07:19:38;98967.38;;;-3.20;79.83
42297;BME280;72430;47.456;19.016;2024-01-15T07:22:40;98968.19;;;-2.88;80.00
42297;BME280;72430;47.456;19.016;2024-01-15T07:25:42;98976.59;;;-2.97;80.79
42297;BME280;72430;47.456;19.016;2024-01-15T07:28:43;98969.94;;;-2.56;82.13
42297;BME280;72430;47.456;19.016;2024-01-15T07:31:52;98978.53;;;-2.38;81.18
42297;BME280;72430;47.456;19.016;2024-01-15T07:34:54;98989.59;;;-2.17;81.78
42297;BME280;72430;47.456;19.016;2024-01-15T07:37:56;98977.97;;;-1.98;81.67
42297;BME280;72430;47.456;19.016;2024-01-15T07:40:58;98985.63;;;-1.93;81.26
42297;BME280;72430;47.456;19.016;2024-01-15T07:44:00;98980.44;;;-1.80;81.53
42297;BME280;72430;47.456;19.016;2024-01-15T07:47:02;98979.38;;;-1.78;82.11
42297;BME280;72430;47.456;19.016;2024-01-15T07:50:05;98984.50;;;-1.74;81.31
42297;BME280;72430;47.456;19.016;2024-01-15T07:53:07;98976.75;;;-1.78;82.29
42297;BME280;72430;47.456;19.016;2024-01-15T07:56:09;98976.00;;;-1.80;81.88
42297;BME280;72430;47.456;19.016;2024-01-15T07:59:11;98987.78;;;-1.71;81.72
42297;BME280;72430;47.456;19.016;2024-01-15T08:02:13;98985.69;;;-1.51;81.30
42297;BME280;72430;47.456;19.016;2024-01-15T08:05:15;98984.50;;;-1.45;82.05
42297;BME280;72430;47.456;19.016;2024-01-15T08:08:17;98982.22;;;-1.23;81.27
42297;BME280;72430;47.456;19.016;2024-01-15T08:11:19;98979.25;;;-0.76;81.60
42297;BME280;72430;47.456;19.016;2024-01-15T08:14:22;98982.91;;;-0.10;80.48
42297;BME280;72430;47.456;19.016;2024-01-15T08:17:24;98991.59;;;0.18;78.29
42297;BME280;72430;47.456;19.016;2024-01-15T08:20:31;98983.66;;;0.31;78.15
42297;BME280;72430;47.456;19.016;2024-01-15T08:23:34;98977.25;;;0.72;76.73
42297;BME280;72430;47.456;19.016;2024-01-15T08:26:36;98976.09;;;1.14;75.84
42297;BME280;72430;47.456;19.016;2024-01-15T08:29:38;98994.00;;;1.83;74.75
42297;BME280;72430;47.456;19.016;2024-01-15T08:32:40;98980.91;;;2.05;73.40
42297;BME280;72430;47.456;19.016;2024-01-15T08:35:45;98980.72;;;2.65;69.30
42297;BME280;72430;47.456;19.016;2024-01-15T08:38:47;98993.59;;;3.48;69.06
42297;BME280;72430;47.456;19.016;2024-01-15T08:41:49;98982.97;;;4.54;65.55
42297;BME280;72430;47.456;19.016;2024-01-15T08:44:50;98973.63;;;5.11;63.56
42297;BME280;72430;47.456;19.016;2024-01-15T08:47:52;98973.56;;;5.72;59.25
42297;BME280;72430;47.456;19.016;2024-01-15T08:50:55;98977.47;;;6.17;56.75
42297;BME280;72430;47.456;19.016;2024-01-15T08:53:58;98973.28;;;7.36;57.37
42297;BME280;72430;47.456;19.016;2024-01-15T08:56:59;98966.25;;;8.16;53.16
42297;BME280;72430;47.456;19.016;2024-01-15T09:00:01;98966.38;;;8.94;49.80
42297;BME280;72430;47.456;19.016;2024-01-15T09:03:04;98962.47;;;9.40;46.90
42297;BME280;72430;47.456;19.016;2024-01-15T09:06:06;98970.06;;;10.11;46.28
42297;BME280;72430;47.456;19.016;2024-01-15T09:09:08;98973.41;;;10.55;45.21
42297;BME280;72430;47.456;19.016;2024-01-15T09:12:10;98968.69;;;10.97;43.38
42297;BME280;72430;47.456;19.016;2024-01-15T09:15:12;98976.78;;;10.97;42.13
42297;BME280;72430;47.456;19.016;2024-01-15T09:18:14;98963.81;;;11.79;42.67
42297;BME280;72430;47.456;19.016;2024-01-15T09:21:16;98958.88;;;12.29;42.66
42297;BME280;72430;47.456;19.016;2024-01-15T09:24:17;98956.56;;;12.41;39.18
42297;BME280;72430;47.456;19.016;2024-01-15T09:27:27;98941.97;;;13.18;40.18
42297;BME280;72430;47.456;19.016;2024-01-15T09:30:30;98947.28;;;12.74;36.69
42297;BME280;72430;47.456;19.016;2024-01-15T09:33:32;98927.06;;;13.22;38.70
42297;BME280;72430;47.456;19.016;2024-01-15T09:36:39;98942.25;;;13.81;36.96
42297;BME280;72430;47.456;19.016;2024-01-15T09:39:42;98947.66;;;14.67;37.07
42297;BME280;72430;47.456;19.016;2024-01-15T09:42:44;98941.78;;;14.57;32.69
42297;BME280;72430;47.456;19.016;2024-01-15T09:45:49;98919.59;;;14.75;33.68
42297;BME280;72430;47.456;19.016;2024-01-15T09:48:51;98912.41;;;15.02;35.71
42297;BME280;72430;47.456;19.016;2024-01-15T09:51:54;98904.38;;;15.43;34.85
42297;BME280;72430;47.456;19.016;2024-01-15T09:55:10;98899.03;;;16.10;33.46
42297;BME280;72430;47.456;19.016;2024-01-15T09:58:14;98895.81;;;16.47;30.39
42297;BME280;72430;47.456;19.016;2024-01-15T10:01:17;98890.16;;;17.15;29.59
42297;BME280;72430;47.456;19.016;2024-01-15T10:04:18;98902.50;;;17.82;31.34
42297;BME280;72430;47.456;19.016;2024-01-15T10:07:21;98892.19;;;17.58;29.38
42297;BME280;72430;47.456;19.016;2024-01-15T10:10:24;98887.06;;;17.43;27.42
42297;BME280;72430;47.456;19.016;2024-01-15T10:13:28;98890.06;;;17.35;29.58
42297;BME280;72430;47.456;19.016;2024-01-15T10:16:31;98883.09;;;17.97;28.16
42297;BME280;72430;47.456;19.016;2024-01-15T10:19:33;98869.09;;;18.19;26.24
42297;BME280;72430;47.456;19.016;2024-01-15T10:22:35;98870.09;;;18.24;26.53
42297;BME280;72430;47.456;19.016;2024-01-15T10:25:41;98850.19;;;18.61;26.75
42297;BME280;72430;47.456;19.016;2024-01-15T10:28:43;98851.63;;;18.83;26.19
42297;BME280;72430;47.456;19.016;2024-01-15T10:31:46;98849.16;;;18.93;24.26
42297;BME280;72430;47.456;19.016;2024-01-15T10:34:52;98850.66;;;18.40;24.86
42297;BME280;72430;47.456;19.016;2024-01-15T10:37:54;98843.44;;;18.83;27.18
42297;BME280;72430;47.456;19.016;2024-01-15T10:40:56;98850.34;;;18.48;26.01
42297;BME280;72430;47.456;19.016;2024-01-15T10:43:58;98840.25;;;18.11;24.91
42297;BME280;72430;47.456;19.016;2024-01-15T10:47:01;98854.06;;;18.35;23.72
42297;BME280;72430;47.456;19.016;2024-01-15T10:50:03;98862.09;;;19.16;25.82
42297;BME280;72430;47.456;19.016;2024-01-15T10:53:06;98850.28;;;18.55;23.37
42297;BME280;72430;47.456;19.016;2024-01-15T10:56:12;98843.78;;;19.05;24.43
42297;BME280;72430;47.456;19.016;2024-01-15T10:59:15;98837.03;;;19.08;24.22
42297;BME280;72430;47.456;19.016;2024-01-15T11:02:18;98841.53;;;18.83;24.02
42297;BME280;72430;47.456;19.016;2024-01-15T11:05:20;98846.81;;;19.82;23.49
42297;BME280;72430;47.456;19.016;2024-01-15T11:08:25;98842.56;;;20.10;24.94
42297;BME280;72430;47.456;19.016;2024-01-15T11:11:26;98841.09;;;19.95;26.58
42297;BME280;72430;47.456;19.016;2024-01-15T11:14:44;98853.13;;;19.28;23.54
42297;BME280;72430;47.456;19.016;2024-01-15T11:18:01;98840.88;;;19.85;23.33
42297;BME280;72430;47.456;19.016;2024-01-15T11:24:34;98840.88;;;19.73;23.49
42297;BME280;72430;47.456;19.016;2024-01-15T11:27:41;98826.59;;;20.84;23.52
42297;BME280;72430;47.456;19.016;2024-01-15T11:30:44;98813.00;;;20.72;22.10
42297;BME280;72430;47.456;19.016;2024-01-15T11:33:49;98824.50;;;20.21;24.09
42297;BME280;72430;47.456;19.016;2024-01-15T11:39:55;98816.13;;;21.39;21.36
42297;BME280;72430;47.456;19.016;2024-01-15T11:42:58;98806.16;;;21.15;21.57
42297;BME280;72430;47.456;19.016;2024-01-15T11:46:01;98832.69;;;19.73;22.33
42297;BME280;72430;47.456;19.016;2024-01-15T11:49:08;98817.25;;;20.03;22.26
42297;BME280;72430;47.456;19.016;2024-01-15T11:52:20;98818.13;;;20.15;22.47
42297;BME280;72430;47.456;19.016;2024-01-15T11:55:27;98802.53;;;20.28;22.88
42297;BME280;72430;47.456;19.016;2024-01-15T11:58:34;98782.00;;;19.11;22.64
42297;BME280;72430;47.456;19.016;2024-01-15T12:01:41;98780.41;;;19.22;23.34
42297;BME280;72430;47.456;19.016;2024-01-15T12:04:43;98782.78;;;20.37;22.36
42297;BME280;72430;47.456;19.016;2024-01-15T12:07:48;98789.41;;;20.83;23.01
42297;BME280;72430;47.456;19.016;2024-01-15T12:10:50;98775.69;;;20.95;21.06
42297;BME280;72430;47.456;19.016;2024-01-15T12:13:53;98779.63;;;21.33;21.35
42297;BME280;72430;47.456;19.016;2024-01-15T12:16:56;98770.44;;;21.22;21.35
42297;BME280;72430;47.456;19.016;2024-01-15T12:19:58;98761.81;;;21.13;20.65
42297;BME280;72430;47.456;19.016;2024-01-15T12:23:01;98768.13;;;21.82;21.50
42297;BME280;72430;47.456;19.016;2024-01-15T12:26:11;98759.59;;;22.23;20.90
42297;BME280;72430;47.456;19.016;2024-01-15T12:29:13;98759.34;;;22.03;20.28
42297;BME280;72430;47.456;19.016;2024-01-15T12:32:15;98749.03;;;21.36;19.36
42297;BME280;72430;47.456;19.016;2024-01-15T12:35:17;98744.88;;;21.51;20.08
42297;BME280;72430;47.456;19.016;2024-01-15T12:38:19;98740.34;;;21.22;20.48
42297;BME280;72430;47.456;19.016;2024-01-15T12:41:22;98737.66;;;20.93;20.48
42297;BME280;72430;47.456;19.016;2024-01-15T12:44:24;98742.53;;;21.77;20.52
42297;BME280;72430;47.456;19.016;2024-01-15T12:47:26;98745.69;;;21.85;19.14
42297;BME280;72430;47.456;19.016;2024-01-15T12:50:28;98740.09;;;21.75;19.38
42297;BME280;72430;47.456;19.016;2024-01-15T12:53:30;98741.97;;;21.57;19.55
42297;BME280;72430;47.456;19.016;2024-01-15T12:56:32;98739.78;;;20.91;19.82
42297;BME280;72430;47.456;19.016;2024-01-15T12:59:33;98745.03;;;22.18;19.61
42297;BME280;72430;47.456;19.016;2024-01-15T13:02:36;98745.88;;;21.44;18.89
42297;BME280;72430;47.456;19.016;2024-01-15T13:05:38;98745.91;;;22.23;18.87
42297;BME280;72430;47.456;19.016;2024-01-15T13:08:42;98736.41;;;22.53;19.02
42297;BME280;72430;47.456;19.016;2024-01-15T13:11:44;98745.06;;;22.67;19.26
42297;BME280;72430;47.456;19.016;2024-01-15T13:14:46;98752.00;;;21.86;19.54
42297;BME280;72430;47.456;19.016;2024-01-15T13:17:51;98749.91;;;22.16;18.89
42297;BME280;72430;47.456;19.016;2024-01-15T13:20:53;98757.19;;;22.27;18.82
42297;BME280;72430;47.456;19.016;2024-01-15T13:23:55;98753.13;;;20.87;18.84
42297;BME280;72430;47.456;19.016;2024-01-15T13:26:57;98735.75;;;20.23;19.63
42297;BME280;72430;47.456;19.016;2024-01-15T13:29:59;98742.72;;;19.54;20.00
42297;BME280;72430;47.456;19.016;2024-01-15T13:33:01;98744.38;;;18.58;20.86
42297;BME280;72430;47.456;19.016;2024-01-15T13:36:06;98769.13;;;18.01;21.71
42297;BME280;72430;47.456;19.016;2024-01-15T13:39:12;98773.03;;;17.42;23.09
42297;BME280;72430;47.456;19.016;2024-01-15T13:42:15;98775.25;;;17.26;22.87
42297;BME280;72430;47.456;19.016;2024-01-15T13:45:17;98775.97;;;16.76;23.09
42297;BME280;72430;47.456;19.016;2024-01-15T13:48:20;98773.13;;;15.84;24.19
42297;BME280;72430;47.456;19.016;2024-01-15T13:51:22;98774.44;;;15.55;24.90
42297;BME280;72430;47.456;19.016;2024-01-15T13:54:24;98772.78;;;15.27;25.07
42297;BME280;72430;47.456;19.016;2024-01-15T13:57:42;98766.06;;;15.83;24.63
42297;BME280;72430;47.456;19.016;2024-01-15T14:00:46;98770.88;;;15.75;25.60
42297;BME280;72430;47.456;19.016;2024-01-15T14:03:48;98762.31;;;15.64;25.34
42297;BME280;72430;47.456;19.016;2024-01-15T14:06:50;98763.38;;;15.36;25.69
42297;BME280;72430;47.456;19.016;2024-01-15T14:09:52;98765.88;;;15.04;25.36
42297;BME280;72430;47.456;19.016;2024-01-15T14:12:54;98755.97;;;14.07;26.16
42297;BME280;72430;47.456;19.016;2024-01-15T14:15:56;98766.16;;;13.69;27.20
42297;BME280;72430;47.456;19.016;2024-01-15T14:18:58;98768.59;;;14.35;26.08
42297;BME280;72430;47.456;19.016;2024-01-15T14:22:00;98787.34;;;13.66;26.58
42297;BME280;72430;47.456;19.016;2024-01-15T14:25:02;98783.38;;;13.62;26.60
42297;BME280;72430;47.456;19.016;2024-01-15T14:28:04;98789.81;;;13.17;27.39
42297;BME280;72430;47.456;19.016;2024-01-15T14:31:06;98785.22;;;12.52;27.96
42297;BME280;72430;47.456;19.016;2024-01-15T14:34:09;98782.28;;;12.02;28.72
42297;BME280;72430;47.456;19.016;2024-01-15T14:37:11;98782.31;;;11.48;29.78
42297;BME280;72430;47.456;19.016;2024-01-15T14:40:13;98785.88;;;10.55;30.74
42297;BME280;72430;47.456;19.016;2024-01-15T14:43:18;98788.66;;;10.30;30.68
42297;BME280;72430;47.456;19.016;2024-01-15T14:46:21;98798.06;;;9.78;31.28
42297;BME280;72430;47.456;19.016;2024-01-15T14:49:23;98812.38;;;9.53;31.80
42297;BME280;72430;47.456;19.016;2024-01-15T14:52:25;98812.56;;;9.52;32.18
42297;BME280;72430;47.456;19.016;2024-01-15T14:55:27;98811.03;;;9.08;32.30
42297;BME280;72430;47.456;19.016;2024-01-15T14:58:29;98801.44;;;8.80;32.83
42297;BME280;72430;47.456;19.016;2024-01-15T15:01:30;98800.75;;;8.62;33.88
42297;BME280;72430;47.456;19.016;2024-01-15T15:04:33;98805.53;;;8.41;34.77
42297;BME280;72430;47.456;19.016;2024-01-15T15:07:35;98801.38;;;8.12;35.06
42297;BME280;72430;47.456;19.016;2024-01-15T15:10:38;98789.97;;;7.75;34.87
42297;BME280;72430;47.456;19.016;2024-01-15T15:13:43;98791.25;;;7.63;35.62
42297;BME280;72430;47.456;19.016;2024-01-15T15:16:46;98794.03;;;7.53;36.42
42297;BME280;72430;47.456;19.016;2024-01-15T15:19:48;98794.22;;;7.33;36.44
42297;BME280;72430;47.456;19.016;2024-01-15T15:22:50;98791.88;;;6.94;37.46
42297;BME280;72430;47.456;19.016;2024-01-15T15:25:56;98794.94;;;6.99;37.20
42297;BME280;72430;47.456;19.016;2024-01-15T15:28:58;98799.44;;;6.98;37.00
42297;BME280;72430;47.456;19.016;2024-01-15T15:32:00;98792.13;;;6.82;37.26
42297;BME280;72430;47.456;19.016;2024-01-15T15:35:03;98781.66;;;6.71;37.66
42297;BME280;72430;47.456;19.016;2024-01-15T15:38:05;98788.56;;;6.45;38.48
42297;BME280;72430;47.456;19.016;2024-01-15T15:41:07;98782.09;;;6.20;39.59
42297;BME280;72430;47.456;19.016;2024-01-15T15:44:10;98790.22;;;6.28;39.36
42297;BME280;72430;47.456;19.016;2024-01-15T15:47:14;98789.81;;;6.23;40.63
42297;BME280;72430;47.456;19.016;2024-01-15T15:50:16;98791.03;;;6.57;37.44
42297;BME280;72430;47.456;19.016;2024-01-15T15:53:21;98800.41;;;6.43;37.89
42297;BME280;72430;47.456;19.016;2024-01-15T15:56:24;98799.66;;;6.51;37.62
42297;BME280;72430;47.456;19.016;2024-01-15T15:59:27;98805.72;;;6.25;38.33
42297;BME280;72430;47.456;19.016;2024-01-15T16:02:29;98833.50;;;6.04;40.60